AIRPORT_AIRPORT_METAR
METAR FOR LWOH
ADDS - METARS form results

(1459 UTC 18 August 2019)
Data provider http://aviationweather.gov/metar/data/
 
METAR text: LWOH 181430Z 17006KT 140V200 CAVOK 26/10 Q1017
Conditions at: LWOH (OHRID , MK) observed 1430 UTC 18 August 2019
Temperature: 26.0°C (79°F)
Dewpoint: 10.0°C (50°F) [RH = 37%]
Pressure (altimeter): 30.03 inches Hg (1017.0 mb)
Winds: from the S (170 degrees) at 7 MPH (6 knots; 3.1 m/s)
Visibility: 6 or more miles (10+ km)
Ceiling: ceiling and visibility are OK
Clouds: unknown
Weather: no significant weather observed at this time

METAR text: LWOH 181400Z 17005KT CAVOK 26/11 Q1017
Conditions at: LWOH (OHRID , MK) observed 1400 UTC 18 August 2019
Temperature: 26.0°C (79°F)
Dewpoint: 11.0°C (52°F) [RH = 39%]
Pressure (altimeter): 30.03 inches Hg (1017.0 mb)
Winds: from the S (170 degrees) at 6 MPH (5 knots; 2.6 m/s)
Visibility: 6 or more miles (10+ km)
Ceiling: ceiling and visibility are OK
Clouds: unknown
Weather: no significant weather observed at this time

Forecast for: LWOH (OHRID , MK)
Text: TAF LWOH 181430Z 1815/1915 15006KT 9999 FEW045
Forecast period: 1500 UTC 18 August 2019 to 1500 UTC 19 August 2019
Forecast type: FROM: standard forecast or significant change
Winds: from the SSE (150 degrees) at 7 MPH (6 knots; 3.1 m/s)
Visibility: 6 or more miles 10+ km)
Ceiling: at least 12,000 feet AGL
Clouds: few clouds at 4500 feet AGL
Weather: no significant weather forecast for this period

 AIRPORT_AIRPORT_MAP

 AIRPORT_RUNWAY_INFO
AIRPORT_RUNWAY 02 AIRPORT_RUNWAY_LENGTH 8366 ft AIRPORT_RUNWAY_WIDTH 140 ft
AIRPORT_RUNWAY_ELEVATION 2284 ft AIRPORT_RUNWAY_THRESHOLD 0 ft AIRPORT_RUNWAY_HEADING 18
AIRPORT_RUNWAY 20 AIRPORT_RUNWAY_LENGTH 8366 ft AIRPORT_RUNWAY_WIDTH 140 ft
AIRPORT_RUNWAY_ELEVATION 2313 ft AIRPORT_RUNWAY_THRESHOLD 0 ft AIRPORT_RUNWAY_HEADING 198

 AIRPORT_AIRPORT_FREQUENCIES
AIRPORT_AIRPORT_NAVAIDS_TYPE APP AIRPORT_AIRPORT_NAVAIDS_NAME APP AIRPORT_AIRPORT_NAVAIDS_FREQ 119.2 MHZ
AIRPORT_AIRPORT_NAVAIDS_TYPE TWR AIRPORT_AIRPORT_NAVAIDS_NAME TWR AIRPORT_AIRPORT_NAVAIDS_FREQ 119.2 MHZ

 AIRPORT_AIRPORT_NAVAIDS
AIRPORT_AIRPORT_NAVAIDS_TYPE NDB AIRPORT_AIRPORT_NAVAIDS_NAME Ohrid AIRPORT_AIRPORT_NAVAIDS_FREQ 432 KHZ
AIRPORT_AIRPORT_NAVAIDS_TYPE VOR-DME AIRPORT_AIRPORT_NAVAIDS_NAME Ohrid AIRPORT_AIRPORT_NAVAIDS_FREQ 112500 KHZ



Copyright © 2005-2019 - Virtuel Air Alsace - Tous droits réservés